Latest Weather Observations for Wattamolla

IDN60801

Issued at 8:35 am EST Friday 25 July 2014 (issued every 30 minutes, with the page automatically refreshed every 10 minutes)

About weather observations | Map of weather stations | Latest weather observations for NSW | Other Formats
Station Details ID: 066208 Name: WATTAMOLLA AWS Lat: -34.14 Lon: 151.12 Height: 44.0 m
Data from the previous 72 hours. | See also: Recent months for locations in New South Wales
Date/Time
EST
Temp
°C
App
Temp
°C
Dew
Point
Rel
Hum
%
Delta-T
°C
Wind Press
QNH
hPa
Press
MSL
hPa
Rain
since 9 am
mm
Dir
 
Spd
km/h
Gust
km/h
Spd
kts
Gust
kts
25/08:30am - - - - - NNW 13 19 7 10 - - -
25/08:00am - - - - - N 20 32 11 17 - - -
25/07:30am - - - - - NNW 20 30 11 16 - - -
25/07:00am - - - - - N 22 28 12 15 - - -
25/06:30am - - - - - N 19 26 10 14 - - -
25/06:00am - - - - - N 15 20 8 11 - - -
25/05:30am - - - - - N 11 17 6 9 - - -
25/05:00am - - - - - N 7 13 4 7 - - -
25/04:30am - - - - - N 9 13 5 7 - - -
25/04:00am - - - - - N 11 15 6 8 - - -
25/03:30am - - - - - N 13 15 7 8 - - -
25/03:00am - - - - - NNW 7 9 4 5 - - -
25/02:30am - - - - - NNW 7 9 4 5 - - -
25/02:00am - - - - - N 9 15 5 8 - - -
25/01:30am - - - - - N 9 13 5 7 - - -
25/01:00am - - - - - N 7 11 4 6 - - -
25/12:30am - - - - - NNW 11 15 6 8 - - -
25/12:00am - - - - - N 13 17 7 9 - - -
 
Date/Time
EST
Temp
°C
App
Temp
°C
Dew
Point
Rel
Hum
%
Delta-T
°C
Wind Press
QNH
hPa
Press
MSL
hPa
Rain
since 9 am
mm
Dir
 
Spd
km/h
Gust
km/h
Spd
kts
Gust
kts
24/11:30pm - - - - - N 17 20 9 11 - - -
24/11:00pm - - - - - N 15 17 8 9 - - -
24/10:30pm - - - - - N 13 17 7 9 - - -
24/10:00pm - - - - - N 13 15 7 8 - - -
24/09:30pm - - - - - N 13 15 7 8 - - -
24/09:00pm - - - - - N 13 13 7 7 - - -
24/08:30pm - - - - - N 13 13 7 7 - - -
24/08:00pm - - - - - N 11 13 6 7 - - -
24/07:30pm - - - - - N 13 15 7 8 - - -
24/07:00pm - - - - - N 13 15 7 8 - - -
24/06:30pm - - - - - N 11 11 6 6 - - -
24/06:00pm - - - - - N 11 13 6 7 - - -
24/05:30pm - - - - - N 9 13 5 7 - - -
24/05:00pm - - - - - N 9 11 5 6 - - -
24/04:30pm - - - - - N 6 7 3 4 - - -
24/04:00pm - - - - - N 11 15 6 8 - - -
24/03:30pm - - - - - N 13 19 7 10 - - -
24/03:00pm - - - - - N 13 17 7 9 - - -
24/02:30pm - - - - - NNE 13 17 7 9 - - -
24/02:00pm - - - - - NNE 15 22 8 12 - - -
24/01:30pm - - - - - N 15 22 8 12 - - -
24/01:00pm - - - - - N 13 17 7 9 - - -
24/12:30pm - - - - - N 17 20 9 11 - - -
24/12:00pm - - - - - N 17 26 9 14 - - -
24/11:30am - - - - - N 13 20 7 11 - - -
24/11:00am - - - - - N 11 19 6 10 - - -
24/10:30am - - - - - N 11 17 6 9 - - -
24/10:00am - - - - - N 13 17 7 9 - - -
24/09:30am - - - - - N 13 19 7 10 - - -
24/09:00am - - - - - N 11 15 6 8 - - -
24/08:30am - - - - - N 11 13 6 7 - - -
24/08:00am - - - - - NNW 15 17 8 9 - - -
24/07:30am - - - - - NNW 17 19 9 10 - - -
24/07:00am - - - - - NW 19 19 10 10 - - -
24/06:30am - - - - - NW 19 20 10 11 - - -
24/06:00am - - - - - NW 19 20 10 11 - - -
24/05:30am - - - - - NW 19 20 10 11 - - -
24/05:00am - - - - - NW 17 19 9 10 - - -
24/04:30am - - - - - NNW 15 19 8 10 - - -
24/04:00am - - - - - NW 19 20 10 11 - - -
24/03:30am - - - - - NNW 15 17 8 9 - - -
24/03:00am - - - - - NNW 15 17 8 9 - - -
24/02:30am - - - - - NNW 13 15 7 8 - - -
24/02:00am - - - - - NNW 13 15 7 8 - - -
24/01:30am - - - - - NNW 13 17 7 9 - - -
24/01:00am - - - - - NNW 15 17 8 9 - - -
24/12:30am - - - - - NNW 17 19 9 10 - - -
24/12:00am - - - - - NNW 15 17 8 9 - - -
 
Date/Time
EST
Temp
°C
App
Temp
°C
Dew
Point
Rel
Hum
%
Delta-T
°C
Wind Press
QNH
hPa
Press
MSL
hPa
Rain
since 9 am
mm
Dir
 
Spd
km/h
Gust
km/h
Spd
kts
Gust
kts
23/11:30pm - - - - - NW 17 19 9 10 - - -
23/11:00pm - - - - - NNW 15 17 8 9 - - -
23/10:30pm - - - - - NNW 15 17 8 9 - - -
23/10:00pm - - - - - NNW 13 17 7 9 - - -
23/09:30pm - - - - - NNW 13 15 7 8 - - -
23/09:00pm - - - - - NNW 13 13 7 7 - - -
23/08:30pm - - - - - NNW 11 15 6 8 - - -
23/08:00pm - - - - - NNW 11 13 6 7 - - -
23/07:30pm - - - - - NNW 11 13 6 7 - - -
23/07:00pm - - - - - N 9 13 5 7 - - -
23/06:30pm - - - - - NNE 7 13 4 7 - - -
23/06:00pm - - - - - NNE 7 13 4 7 - - -
23/05:30pm - - - - - NE 7 13 4 7 - - -
23/05:00pm - - - - - E 9 13 5 7 - - -
23/04:30pm - - - - - ESE 9 13 5 7 - - -
23/04:00pm - - - - - SE 9 15 5 8 - - -
23/03:30pm - - - - - SE 13 17 7 9 - - -
23/03:00pm - - - - - SE 11 17 6 9 - - -
23/02:30pm - - - - - ESE 9 13 5 7 - - -
23/02:00pm - - - - - SE 9 15 5 8 - - -
23/01:30pm - - - - - SE 13 17 7 9 - - -
23/01:00pm - - - - - SSE 13 15 7 8 - - -
23/12:30pm - - - - - S 11 15 6 8 - - -
23/12:00pm - - - - - S 13 15 7 8 - - -
23/11:30am - - - - - S 13 17 7 9 - - -
23/11:00am - - - - - S 15 19 8 10 - - -
23/10:30am - - - - - S 11 17 6 9 - - -
23/10:00am - - - - - S 13 19 7 10 - - -
23/09:30am - - - - - S 15 20 8 11 - - -
23/09:00am - - - - - S 17 24 9 13 - - -
23/08:30am - - - - - SW 13 17 7 9 - - -
23/08:00am - - - - - SW 15 17 8 9 - - -
23/07:30am - - - - - SW 15 19 8 10 - - -
23/07:00am - - - - - WSW 15 17 8 9 - - -
23/06:30am - - - - - WSW 15 15 8 8 - - -
23/06:00am - - - - - SW 13 17 7 9 - - -
23/05:30am - - - - - SW 13 13 7 7 - - -
23/05:00am - - - - - WSW 13 15 7 8 - - -
23/04:30am - - - - - WSW 15 17 8 9 - - -
23/04:00am - - - - - WSW 13 15 7 8 - - -
23/03:30am - - - - - SW 13 15 7 8 - - -
23/03:00am - - - - - SW 13 15 7 8 - - -
23/02:30am - - - - - WSW 15 17 8 9 - - -
23/02:00am - - - - - WSW 11 15 6 8 - - -
23/01:30am - - - - - WSW 13 17 7 9 - - -
23/01:00am - - - - - W 15 17 8 9 - - -
23/12:30am - - - - - WSW 15 17 8 9 - - -
23/12:00am - - - - - W 13 17 7 9 - - -
 
Date/Time
EST
Temp
°C
App
Temp
°C
Dew
Point
Rel
Hum
%
Delta-T
°C
Wind Press
QNH
hPa
Press
MSL
hPa
Rain
since 9 am
mm
Dir
 
Spd
km/h
Gust
km/h
Spd
kts
Gust
kts
22/11:30pm - - - - - WNW 11 13 6 7 - - -
22/11:00pm - - - - - W 11 15 6 8 - - -
22/10:30pm - - - - - WNW 7 9 4 5 - - -
22/10:00pm - - - - - NW 6 11 3 6 - - -
22/09:30pm - - - - - S 4 11 2 6 - - -
22/09:00pm - - - - - SSE 9 11 5 6 - - -
22/08:30pm - - - - - WSW 7 13 4 7 - - -
22/08:00pm - - - - - SSE 15 20 8 11 - - -
22/07:30pm - - - - - S 17 22 9 12 - - -
22/07:00pm - - - - - S 17 22 9 12 - - -
22/06:30pm - - - - - S 15 19 8 10 - - -
22/06:00pm - - - - - S 17 24 9 13 - - -
22/05:30pm - - - - - S 17 24 9 13 - - -
22/05:00pm - - - - - S 15 20 8 11 - - -
22/04:30pm - - - - - SSE 15 19 8 10 - - -
22/03:30pm - - - - - SSE 13 17 7 9 - - -
22/03:00pm - - - - - S 17 20 9 11 - - -
22/02:30pm - - - - - S 15 19 8 10 - - -
22/02:00pm - - - - - S 17 20 9 11 - - -
22/01:30pm - - - - - S 19 26 10 14 - - -
22/01:00pm - - - - - S 20 26 11 14 - - -
22/12:30pm - - - - - S 20 26 11 14 - - -
22/12:00pm - - - - - S 20 26 11 14 - - -
22/11:30am - - - - - S 17 20 9 11 - - -
22/11:00am - - - - - S 11 13 6 7 - - -
22/10:30am - - - - - S 11 15 6 8 - - -
22/10:00am - - - - - SSE 11 17 6 9 - - -
22/09:30am - - - - - S 13 19 7 10 - - -
22/09:00am - - - - - S 9 13 5 7 - - -

Other Formats:

Comma delimited format used in spreadsheet applications
http://www.bom.gov.au/fwo/IDN60801/IDN60801.95752.axf

JavaScript Object Notation format (JSON) in row-major order
http://www.bom.gov.au/fwo/IDN60801/IDN60801.95752.json